sensor_id;sensor_type;location;lat;lon;timestamp;P1;durP1;ratioP1;P2;durP2;ratioP2
12369;SDS011;6249;52.128;9.986;2023-08-21T00:01:39;12.50;;;3.80;;
12369;SDS011;6249;52.128;9.986;2023-08-21T00:11:39;9.57;;;5.03;;
12369;SDS011;6249;52.128;9.986;2023-08-21T00:21:40;6.90;;;3.40;;
12369;SDS011;6249;52.128;9.986;2023-08-21T00:31:41;10.00;;;4.33;;
12369;SDS011;6249;52.128;9.986;2023-08-21T00:41:44;7.23;;;4.10;;
12369;SDS011;6249;52.128;9.986;2023-08-21T00:51:44;11.20;;;4.40;;
12369;SDS011;6249;52.128;9.986;2023-08-21T01:01:45;10.10;;;4.67;;
12369;SDS011;6249;52.128;9.986;2023-08-21T01:11:50;12.07;;;4.57;;
12369;SDS011;6249;52.128;9.986;2023-08-21T01:21:54;9.40;;;4.60;;
12369;SDS011;6249;52.128;9.986;2023-08-21T01:42:24;17.67;;;4.33;;
12369;SDS011;6249;52.128;9.986;2023-08-21T01:52:27;9.77;;;4.60;;
12369;SDS011;6249;52.128;9.986;2023-08-21T02:02:28;19.50;;;4.67;;
12369;SDS011;6249;52.128;9.986;2023-08-21T02:12:29;8.17;;;3.43;;
12369;SDS011;6249;52.128;9.986;2023-08-21T02:22:29;5.88;;;3.53;;
12369;SDS011;6249;52.128;9.986;2023-08-21T02:32:30;8.10;;;3.70;;
12369;SDS011;6249;52.128;9.986;2023-08-21T02:42:30;6.23;;;3.70;;
12369;SDS011;6249;52.128;9.986;2023-08-21T02:52:31;8.33;;;3.93;;
12369;SDS011;6249;52.128;9.986;2023-08-21T03:02:37;6.53;;;4.17;;
12369;SDS011;6249;52.128;9.986;2023-08-21T03:12:42;11.73;;;4.77;;
12369;SDS011;6249;52.128;9.986;2023-08-21T03:22:43;8.27;;;4.70;;
12369;SDS011;6249;52.128;9.986;2023-08-21T03:32:44;13.40;;;5.23;;
12369;SDS011;6249;52.128;9.986;2023-08-21T03:42:49;7.13;;;4.50;;
12369;SDS011;6249;52.128;9.986;2023-08-21T03:52:50;6.85;;;4.43;;
12369;SDS011;6249;52.128;9.986;2023-08-21T04:02:53;8.70;;;5.23;;
12369;SDS011;6249;52.128;9.986;2023-08-21T04:12:53;9.30;;;5.10;;
12369;SDS011;6249;52.128;9.986;2023-08-21T04:22:56;9.23;;;5.00;;
12369;SDS011;6249;52.128;9.986;2023-08-21T04:32:57;11.20;;;4.90;;
12369;SDS011;6249;52.128;9.986;2023-08-21T04:42:57;9.70;;;5.83;;
12369;SDS011;6249;52.128;9.986;2023-08-21T04:53:00;8.47;;;4.50;;
12369;SDS011;6249;52.128;9.986;2023-08-21T05:03:03;7.23;;;4.60;;
12369;SDS011;6249;52.128;9.986;2023-08-21T05:13:06;6.97;;;4.77;;
12369;SDS011;6249;52.128;9.986;2023-08-21T05:23:08;13.10;;;4.50;;
12369;SDS011;6249;52.128;9.986;2023-08-21T05:33:12;10.13;;;4.10;;
12369;SDS011;6249;52.128;9.986;2023-08-21T05:43:12;9.63;;;4.47;;
12369;SDS011;6249;52.128;9.986;2023-08-21T05:53:13;11.07;;;3.60;;
12369;SDS011;6249;52.128;9.986;2023-08-21T06:03:16;8.27;;;3.83;;
12369;SDS011;6249;52.128;9.986;2023-08-21T06:13:16;9.90;;;3.23;;
12369;SDS011;6249;52.128;9.986;2023-08-21T06:23:19;6.72;;;3.17;;
12369;SDS011;6249;52.128;9.986;2023-08-21T06:33:21;9.97;;;3.20;;
12369;SDS011;6249;52.128;9.986;2023-08-21T06:43:26;9.80;;;3.13;;
12369;SDS011;6249;52.128;9.986;2023-08-21T06:53:29;12.83;;;3.10;;
12369;SDS011;6249;52.128;9.986;2023-08-21T07:03:30;12.90;;;3.00;;
12369;SDS011;6249;52.128;9.986;2023-08-21T07:13:30;8.50;;;2.30;;
12369;SDS011;6249;52.128;9.986;2023-08-21T07:23:31;16.67;;;2.50;;
12369;SDS011;6249;52.128;9.986;2023-08-21T07:33:32;5.57;;;2.10;;
12369;SDS011;6249;52.128;9.986;2023-08-21T07:43:33;7.47;;;2.60;;
12369;SDS011;6249;52.128;9.986;2023-08-21T07:53:34;11.37;;;3.20;;
12369;SDS011;6249;52.128;9.986;2023-08-21T08:03:35;9.67;;;2.50;;
12369;SDS011;6249;52.128;9.986;2023-08-21T08:13:38;6.97;;;2.07;;
12369;SDS011;6249;52.128;9.986;2023-08-21T08:23:38;10.43;;;1.70;;
12369;SDS011;6249;52.128;9.986;2023-08-21T08:33:39;12.43;;;2.20;;
12369;SDS011;6249;52.128;9.986;2023-08-21T08:43:41;6.87;;;1.80;;
12369;SDS011;6249;52.128;9.986;2023-08-21T08:53:43;7.27;;;1.93;;
12369;SDS011;6249;52.128;9.986;2023-08-21T09:03:44;7.10;;;2.17;;
12369;SDS011;6249;52.128;9.986;2023-08-21T09:13:47;7.23;;;2.33;;
12369;SDS011;6249;52.128;9.986;2023-08-21T09:23:55;6.87;;;1.90;;
12369;SDS011;6249;52.128;9.986;2023-08-21T09:34:00;8.23;;;2.17;;
12369;SDS011;6249;52.128;9.986;2023-08-21T09:44:05;5.50;;;1.67;;
12369;SDS011;6249;52.128;9.986;2023-08-21T09:54:08;8.10;;;2.53;;
12369;SDS011;6249;52.128;9.986;2023-08-21T10:04:10;6.73;;;2.13;;
12369;SDS011;6249;52.128;9.986;2023-08-21T10:14:12;10.40;;;2.27;;
12369;SDS011;6249;52.128;9.986;2023-08-21T10:24:13;10.83;;;2.00;;
12369;SDS011;6249;52.128;9.986;2023-08-21T10:34:36;4.80;;;1.73;;
12369;SDS011;6249;52.128;9.986;2023-08-21T10:54:59;7.40;;;1.80;;
12369;SDS011;6249;52.128;9.986;2023-08-21T11:05:04;11.00;;;2.60;;
12369;SDS011;6249;52.128;9.986;2023-08-21T11:15:05;7.37;;;1.63;;
12369;SDS011;6249;52.128;9.986;2023-08-21T11:25:06;14.67;;;2.03;;
12369;SDS011;6249;52.128;9.986;2023-08-21T11:35:10;11.37;;;2.00;;
12369;SDS011;6249;52.128;9.986;2023-08-21T11:45:11;8.07;;;2.10;;
12369;SDS011;6249;52.128;9.986;2023-08-21T11:55:12;6.80;;;1.70;;
12369;SDS011;6249;52.128;9.986;2023-08-21T12:05:14;13.63;;;2.10;;
12369;SDS011;6249;52.128;9.986;2023-08-21T12:15:15;7.80;;;2.10;;
12369;SDS011;6249;52.128;9.986;2023-08-21T12:25:16;6.50;;;2.00;;
12369;SDS011;6249;52.128;9.986;2023-08-21T12:35:16;5.53;;;1.87;;
12369;SDS011;6249;52.128;9.986;2023-08-21T12:45:19;9.00;;;1.90;;
12369;SDS011;6249;52.128;9.986;2023-08-21T12:55:20;9.17;;;1.70;;
12369;SDS011;6249;52.128;9.986;2023-08-21T13:05:20;7.77;;;1.90;;
12369;SDS011;6249;52.128;9.986;2023-08-21T13:15:21;6.70;;;2.00;;
12369;SDS011;6249;52.128;9.986;2023-08-21T13:25:22;12.40;;;2.17;;
12369;SDS011;6249;52.128;9.986;2023-08-21T13:35:24;8.53;;;1.83;;
12369;SDS011;6249;52.128;9.986;2023-08-21T13:45:27;8.05;;;2.03;;
12369;SDS011;6249;52.128;9.986;2023-08-21T13:55:28;7.70;;;1.40;;
12369;SDS011;6249;52.128;9.986;2023-08-21T14:05:28;5.47;;;2.17;;
12369;SDS011;6249;52.128;9.986;2023-08-21T14:15:31;6.87;;;1.63;;
12369;SDS011;6249;52.128;9.986;2023-08-21T14:25:31;8.30;;;2.37;;
12369;SDS011;6249;52.128;9.986;2023-08-21T14:35:32;6.07;;;1.27;;
12369;SDS011;6249;52.128;9.986;2023-08-21T14:45:33;10.40;;;1.55;;
12369;SDS011;6249;52.128;9.986;2023-08-21T14:55:33;8.93;;;1.45;;
12369;SDS011;6249;52.128;9.986;2023-08-21T15:05:34;11.37;;;5.90;;
12369;SDS011;6249;52.128;9.986;2023-08-21T15:15:34;4.13;;;1.55;;
12369;SDS011;6249;52.128;9.986;2023-08-21T15:25:35;6.23;;;1.50;;
12369;SDS011;6249;52.128;9.986;2023-08-21T15:35:36;10.50;;;2.10;;
12369;SDS011;6249;52.128;9.986;2023-08-21T15:45:39;9.40;;;2.00;;
12369;SDS011;6249;52.128;9.986;2023-08-21T15:55:39;9.13;;;1.43;;
12369;SDS011;6249;52.128;9.986;2023-08-21T16:05:40;8.00;;;1.57;;
12369;SDS011;6249;52.128;9.986;2023-08-21T16:15:43;4.28;;;1.30;;
12369;SDS011;6249;52.128;9.986;2023-08-21T16:25:44;12.67;;;1.77;;
12369;SDS011;6249;52.128;9.986;2023-08-21T16:35:44;7.60;;;1.70;;
12369;SDS011;6249;52.128;9.986;2023-08-21T16:45:45;12.40;;;2.03;;
12369;SDS011;6249;52.128;9.986;2023-08-21T16:55:45;11.30;;;1.63;;
12369;SDS011;6249;52.128;9.986;2023-08-21T17:05:46;10.53;;;1.67;;
12369;SDS011;6249;52.128;9.986;2023-08-21T17:15:47;7.60;;;1.33;;
12369;SDS011;6249;52.128;9.986;2023-08-21T17:25:52;4.03;;;1.27;;
12369;SDS011;6249;52.128;9.986;2023-08-21T17:35:53;13.97;;;1.87;;
12369;SDS011;6249;52.128;9.986;2023-08-21T17:45:54;7.87;;;1.53;;
12369;SDS011;6249;52.128;9.986;2023-08-21T17:55:56;7.87;;;2.10;;
12369;SDS011;6249;52.128;9.986;2023-08-21T18:05:58;6.70;;;1.40;;
12369;SDS011;6249;52.128;9.986;2023-08-21T18:16:00;10.07;;;2.23;;
12369;SDS011;6249;52.128;9.986;2023-08-21T18:26:00;8.63;;;2.07;;
12369;SDS011;6249;52.128;9.986;2023-08-21T18:36:02;8.93;;;1.80;;
12369;SDS011;6249;52.128;9.986;2023-08-21T18:46:03;8.93;;;1.87;;
12369;SDS011;6249;52.128;9.986;2023-08-21T18:56:03;8.50;;;1.90;;
12369;SDS011;6249;52.128;9.986;2023-08-21T19:06:07;5.80;;;1.60;;
12369;SDS011;6249;52.128;9.986;2023-08-21T19:16:08;7.67;;;2.03;;
12369;SDS011;6249;52.128;9.986;2023-08-21T19:26:09;8.77;;;1.70;;
12369;SDS011;6249;52.128;9.986;2023-08-21T19:36:12;8.70;;;1.80;;
12369;SDS011;6249;52.128;9.986;2023-08-21T19:46:13;10.43;;;2.30;;
12369;SDS011;6249;52.128;9.986;2023-08-21T19:56:13;13.20;;;2.37;;
12369;SDS011;6249;52.128;9.986;2023-08-21T20:06:14;14.27;;;2.57;;
12369;SDS011;6249;52.128;9.986;2023-08-21T20:16:15;8.40;;;2.50;;
12369;SDS011;6249;52.128;9.986;2023-08-21T20:26:17;7.83;;;2.57;;
12369;SDS011;6249;52.128;9.986;2023-08-21T20:36:19;8.60;;;2.40;;
12369;SDS011;6249;52.128;9.986;2023-08-21T20:46:22;12.83;;;2.53;;
12369;SDS011;6249;52.128;9.986;2023-08-21T20:56:22;10.50;;;3.27;;
12369;SDS011;6249;52.128;9.986;2023-08-21T21:06:26;9.17;;;2.60;;
12369;SDS011;6249;52.128;9.986;2023-08-21T21:16:29;9.47;;;2.63;;
12369;SDS011;6249;52.128;9.986;2023-08-21T21:26:31;10.80;;;2.40;;
12369;SDS011;6249;52.128;9.986;2023-08-21T21:36:31;8.43;;;2.40;;
12369;SDS011;6249;52.128;9.986;2023-08-21T21:46:32;5.80;;;2.55;;
12369;SDS011;6249;52.128;9.986;2023-08-21T21:56:35;6.07;;;2.57;;
12369;SDS011;6249;52.128;9.986;2023-08-21T22:06:39;4.60;;;1.97;;
12369;SDS011;6249;52.128;9.986;2023-08-21T22:16:41;5.23;;;2.07;;
12369;SDS011;6249;52.128;9.986;2023-08-21T22:26:41;10.67;;;2.43;;
12369;SDS011;6249;52.128;9.986;2023-08-21T22:36:42;10.00;;;2.57;;
12369;SDS011;6249;52.128;9.986;2023-08-21T22:46:43;10.10;;;2.53;;
12369;SDS011;6249;52.128;9.986;2023-08-21T22:56:46;4.90;;;2.20;;
12369;SDS011;6249;52.128;9.986;2023-08-21T23:06:46;4.20;;;1.90;;
12369;SDS011;6249;52.128;9.986;2023-08-21T23:16:47;8.50;;;2.23;;
12369;SDS011;6249;52.128;9.986;2023-08-21T23:26:50;9.70;;;2.97;;
12369;SDS011;6249;52.128;9.986;2023-08-21T23:36:53;5.50;;;2.07;;
12369;SDS011;6249;52.128;9.986;2023-08-21T23:46:54;10.13;;;2.80;;
12369;SDS011;6249;52.128;9.986;2023-08-21T23:56:54;10.50;;;2.30;;
